sensor_id;sensor_type;location;lat;lon;timestamp;pressure;altitude;pressure_sealevel;temperature;humidity
78717;BME280;68045;50.042;14.432;2023-04-24T00:01:08;97254.31;;;10.67;78.19
78717;BME280;68045;50.042;14.432;2023-04-24T00:05:09;97249.31;;;10.71;78.38
78717;BME280;68045;50.042;14.432;2023-04-24T00:09:10;97230.13;;;10.81;77.44
78717;BME280;68045;50.042;14.432;2023-04-24T00:13:11;97230.88;;;10.76;77.42
78717;BME280;68045;50.042;14.432;2023-04-24T00:17:12;97230.84;;;10.71;77.97
78717;BME280;68045;50.042;14.432;2023-04-24T00:21:14;97227.69;;;10.74;77.96
78717;BME280;68045;50.042;14.432;2023-04-24T00:25:15;97213.75;;;10.79;77.28
78717;BME280;68045;50.042;14.432;2023-04-24T00:29:16;97221.97;;;10.87;76.32
78717;BME280;68045;50.042;14.432;2023-04-24T00:33:17;97209.59;;;10.98;76.24
78717;BME280;68045;50.042;14.432;2023-04-24T00:37:18;97199.56;;;11.05;75.87
78717;BME280;68045;50.042;14.432;2023-04-24T00:41:19;97200.69;;;11.14;75.32
78717;BME280;68045;50.042;14.432;2023-04-24T00:45:21;97199.38;;;11.17;74.62
78717;BME280;68045;50.042;14.432;2023-04-24T00:49:23;97188.25;;;11.20;74.56
78717;BME280;68045;50.042;14.432;2023-04-24T00:53:24;97188.28;;;11.15;74.63
78717;BME280;68045;50.042;14.432;2023-04-24T00:57:25;97188.28;;;11.15;73.84
78717;BME280;68045;50.042;14.432;2023-04-24T01:06:10;97190.91;;;11.20;73.27
78717;BME280;68045;50.042;14.432;2023-04-24T01:10:13;97189.88;;;11.21;73.63
78717;BME280;68045;50.042;14.432;2023-04-24T01:14:14;97190.94;;;11.25;72.15
78717;BME280;68045;50.042;14.432;2023-04-24T01:18:15;97194.09;;;11.22;73.08
78717;BME280;68045;50.042;14.432;2023-04-24T01:22:16;97192.25;;;11.22;72.21
78717;BME280;68045;50.042;14.432;2023-04-24T01:26:18;97189.63;;;11.22;72.55
78717;BME280;68045;50.042;14.432;2023-04-24T01:30:21;97190.91;;;11.20;73.36
78717;BME280;68045;50.042;14.432;2023-04-24T01:34:22;97193.03;;;11.23;72.84
78717;BME280;68045;50.042;14.432;2023-04-24T01:38:23;97184.06;;;11.34;73.54
78717;BME280;68045;50.042;14.432;2023-04-24T01:42:24;97189.09;;;11.31;73.19
78717;BME280;68045;50.042;14.432;2023-04-24T01:46:25;97187.25;;;11.31;74.74
78717;BME280;68045;50.042;14.432;2023-04-24T01:50:26;97180.41;;;11.35;74.69
78717;BME280;68045;50.042;14.432;2023-04-24T01:54:27;97168.50;;;11.33;74.79
78717;BME280;68045;50.042;14.432;2023-04-24T01:58:30;97160.84;;;11.31;75.68
78717;BME280;68045;50.042;14.432;2023-04-24T02:02:31;97160.31;;;11.29;74.86
78717;BME280;68045;50.042;14.432;2023-04-24T02:06:32;97161.38;;;11.28;75.19
78717;BME280;68045;50.042;14.432;2023-04-24T02:10:35;97161.59;;;11.26;75.53
78717;BME280;68045;50.042;14.432;2023-04-24T02:14:36;97151.84;;;11.22;75.65
78717;BME280;68045;50.042;14.432;2023-04-24T02:18:37;97153.16;;;11.14;76.41
78717;BME280;68045;50.042;14.432;2023-04-24T02:22:38;97156.84;;;11.18;76.17
78717;BME280;68045;50.042;14.432;2023-04-24T02:26:39;97166.63;;;11.18;76.29
78717;BME280;68045;50.042;14.432;2023-04-24T02:30:40;97147.63;;;11.21;76.96
78717;BME280;68045;50.042;14.432;2023-04-24T02:34:41;97154.22;;;11.23;76.36
78717;BME280;68045;50.042;14.432;2023-04-24T02:38:42;97158.97;;;11.16;77.53
78717;BME280;68045;50.042;14.432;2023-04-24T02:42:43;97161.59;;;11.16;77.37
78717;BME280;68045;50.042;14.432;2023-04-24T02:46:44;97159.22;;;11.20;77.32
78717;BME280;68045;50.042;14.432;2023-04-24T02:50:45;97157.13;;;11.22;77.29
78717;BME280;68045;50.042;14.432;2023-04-24T02:54:46;97150.56;;;11.35;76.66
78717;BME280;68045;50.042;14.432;2023-04-24T02:58:47;97153.44;;;11.33;76.96
78717;BME280;68045;50.042;14.432;2023-04-24T03:02:48;97157.66;;;11.34;77.18
78717;BME280;68045;50.042;14.432;2023-04-24T03:06:51;97154.50;;;11.37;76.65
78717;BME280;68045;50.042;14.432;2023-04-24T03:10:54;97154.53;;;11.42;76.83
78717;BME280;68045;50.042;14.432;2023-04-24T03:14:55;97152.91;;;11.41;76.61
78717;BME280;68045;50.042;14.432;2023-04-24T03:18:56;97145.81;;;11.42;77.43
78717;BME280;68045;50.042;14.432;2023-04-24T03:23:00;97153.44;;;11.38;76.43
78717;BME280;68045;50.042;14.432;2023-04-24T03:27:01;97141.81;;;11.39;76.72
78717;BME280;68045;50.042;14.432;2023-04-24T03:31:25;97142.34;;;11.46;76.57
78717;BME280;68045;50.042;14.432;2023-04-24T03:35:26;97145.81;;;11.42;77.43
78717;BME280;68045;50.042;14.432;2023-04-24T03:39:28;97149.75;;;11.39;77.43
78717;BME280;68045;50.042;14.432;2023-04-24T03:43:30;97147.63;;;11.41;77.38
78717;BME280;68045;50.042;14.432;2023-04-24T03:47:34;97154.50;;;11.47;77.05
78717;BME280;68045;50.042;14.432;2023-04-24T03:51:38;97161.38;;;11.43;77.24
78717;BME280;68045;50.042;14.432;2023-04-24T03:55:57;97162.44;;;11.37;78.00
78717;BME280;68045;50.042;14.432;2023-04-24T03:59:59;97164.53;;;11.40;76.96
78717;BME280;68045;50.042;14.432;2023-04-24T04:04:01;97166.13;;;11.46;77.15
78717;BME280;68045;50.042;14.432;2023-04-24T04:08:03;97164.28;;;11.37;77.62
78717;BME280;68045;50.042;14.432;2023-04-24T04:12:04;97174.03;;;11.31;78.00
78717;BME280;68045;50.042;14.432;2023-04-24T04:16:07;97173.50;;;11.34;77.46
78717;BME280;68045;50.042;14.432;2023-04-24T04:20:09;97175.34;;;11.34;78.17
78717;BME280;68045;50.042;14.432;2023-04-24T04:24:12;97181.69;;;11.27;78.57
78717;BME280;68045;50.042;14.432;2023-04-24T04:28:17;97184.09;;;11.29;78.95
78717;BME280;68045;50.042;14.432;2023-04-24T04:32:21;97188.81;;;11.27;79.02
78717;BME280;68045;50.042;14.432;2023-04-24T04:36:24;97194.91;;;11.33;78.61
78717;BME280;68045;50.042;14.432;2023-04-24T04:40:31;97196.19;;;11.20;79.18
78717;BME280;68045;50.042;14.432;2023-04-24T04:44:36;97204.66;;;11.17;79.15
78717;BME280;68045;50.042;14.432;2023-04-24T04:48:40;97201.75;;;11.18;79.64
78717;BME280;68045;50.042;14.432;2023-04-24T04:52:42;97203.63;;;11.28;78.85
78717;BME280;68045;50.042;14.432;2023-04-24T04:56:53;97197.28;;;11.34;78.14
78717;BME280;68045;50.042;14.432;2023-04-24T05:00:55;97196.00;;;11.37;78.07
78717;BME280;68045;50.042;14.432;2023-04-24T05:05:08;97212.34;;;11.34;78.98
78717;BME280;68045;50.042;14.432;2023-04-24T05:09:10;97212.34;;;11.28;79.10
78717;BME280;68045;50.042;14.432;2023-04-24T05:13:26;97219.75;;;11.37;78.57
78717;BME280;68045;50.042;14.432;2023-04-24T05:17:27;97222.13;;;11.28;79.32
78717;BME280;68045;50.042;14.432;2023-04-24T05:21:30;97222.13;;;11.28;78.67
78717;BME280;68045;50.042;14.432;2023-04-24T05:25:31;97231.88;;;11.22;79.64
78717;BME280;68045;50.042;14.432;2023-04-24T05:29:41;97233.72;;;11.27;78.97
78717;BME280;68045;50.042;14.432;2023-04-24T05:33:43;97230.06;;;11.38;78.47
78717;BME280;68045;50.042;14.432;2023-04-24T05:37:46;97241.94;;;11.41;78.15
78717;BME280;68045;50.042;14.432;2023-04-24T05:41:47;97233.53;;;11.44;78.44
78717;BME280;68045;50.042;14.432;2023-04-24T05:45:48;97235.91;;;11.45;78.36
78717;BME280;68045;50.042;14.432;2023-04-24T05:49:49;97236.72;;;11.56;77.74
78717;BME280;68045;50.042;14.432;2023-04-24T05:53:51;97239.91;;;11.68;77.21
78717;BME280;68045;50.042;14.432;2023-04-24T05:57:53;97254.97;;;11.68;77.28
78717;BME280;68045;50.042;14.432;2023-04-24T06:01:54;97248.38;;;11.75;77.03
78717;BME280;68045;50.042;14.432;2023-04-24T06:05:57;97257.09;;;11.76;76.95
78717;BME280;68045;50.042;14.432;2023-04-24T06:09:59;97256.34;;;11.80;77.18
78717;BME280;68045;50.042;14.432;2023-04-24T06:14:00;97252.38;;;11.83;76.65
78717;BME280;68045;50.042;14.432;2023-04-24T06:18:33;97259.75;;;11.71;77.85
78717;BME280;68045;50.042;14.432;2023-04-24T06:22:34;97265.28;;;11.69;78.39
78717;BME280;68045;50.042;14.432;2023-04-24T06:26:35;97271.06;;;11.61;78.95
78717;BME280;68045;50.042;14.432;2023-04-24T06:30:36;97280.84;;;11.61;79.49
78717;BME280;68045;50.042;14.432;2023-04-24T06:34:37;97284.03;;;11.58;79.26
78717;BME280;68045;50.042;14.432;2023-04-24T06:38:38;97283.47;;;11.55;79.93
78717;BME280;68045;50.042;14.432;2023-04-24T06:42:39;97276.59;;;11.54;80.12
78717;BME280;68045;50.042;14.432;2023-04-24T06:46:42;97286.91;;;11.51;79.76
78717;BME280;68045;50.042;14.432;2023-04-24T06:50:43;97274.50;;;11.51;80.61
78717;BME280;68045;50.042;14.432;2023-04-24T06:54:44;97284.03;;;11.58;80.72
78717;BME280;68045;50.042;14.432;2023-04-24T06:58:45;97283.50;;;11.66;80.17
78717;BME280;68045;50.042;14.432;2023-04-24T07:02:46;97279.56;;;11.73;80.69
78717;BME280;68045;50.042;14.432;2023-04-24T07:06:47;97286.47;;;11.79;80.42
78717;BME280;68045;50.042;14.432;2023-04-24T07:10:49;97299.41;;;11.71;79.73
78717;BME280;68045;50.042;14.432;2023-04-24T07:14:51;97302.56;;;11.73;80.16
78717;BME280;68045;50.042;14.432;2023-04-24T07:18:52;97292.00;;;11.78;80.27
78717;BME280;68045;50.042;14.432;2023-04-24T07:22:53;97291.53;;;12.01;79.67
78717;BME280;68045;50.042;14.432;2023-04-24T07:26:54;97296.03;;;12.16;80.13
78717;BME280;68045;50.042;14.432;2023-04-24T07:30:55;97291.56;;;12.22;78.76
78717;BME280;68045;50.042;14.432;2023-04-24T07:34:56;97294.75;;;12.34;79.57
78717;BME280;68045;50.042;14.432;2023-04-24T07:38:57;97305.31;;;12.49;78.79
78717;BME280;68045;50.042;14.432;2023-04-24T07:42:58;97302.94;;;12.63;76.89
78717;BME280;68045;50.042;14.432;2023-04-24T07:46:59;97312.44;;;12.38;76.94
78717;BME280;68045;50.042;14.432;2023-04-24T07:51:00;97312.19;;;12.25;77.43
78717;BME280;68045;50.042;14.432;2023-04-24T07:55:01;97319.31;;;12.04;78.51
78717;BME280;68045;50.042;14.432;2023-04-24T07:59:03;97314.03;;;11.99;78.42
78717;BME280;68045;50.042;14.432;2023-04-24T08:03:05;97319.56;;;12.02;78.70
78717;BME280;68045;50.042;14.432;2023-04-24T08:07:06;97319.56;;;12.02;79.65
78717;BME280;68045;50.042;14.432;2023-04-24T08:11:06;97326.97;;;12.00;77.90
78717;BME280;68045;50.042;14.432;2023-04-24T08:15:08;97322.72;;;11.94;78.32
78717;BME280;68045;50.042;14.432;2023-04-24T08:19:09;97319.81;;;11.86;76.86
78717;BME280;68045;50.042;14.432;2023-04-24T08:23:10;97320.63;;;11.96;78.12
78717;BME280;68045;50.042;14.432;2023-04-24T08:27:10;97313.22;;;11.98;77.82
78717;BME280;68045;50.042;14.432;2023-04-24T08:31:11;97307.41;;;12.06;78.04
78717;BME280;68045;50.042;14.432;2023-04-24T08:35:12;97307.41;;;12.32;77.53
78717;BME280;68045;50.042;14.432;2023-04-24T08:39:14;97304.53;;;12.28;78.48
78717;BME280;68045;50.042;14.432;2023-04-24T08:43:15;97307.19;;;12.33;79.01
78717;BME280;68045;50.042;14.432;2023-04-24T08:47:17;97310.34;;;12.41;78.66
78717;BME280;68045;50.042;14.432;2023-04-24T08:51:21;97321.22;;;12.34;77.73
78717;BME280;68045;50.042;14.432;2023-04-24T08:55:23;97315.63;;;12.15;79.73
78717;BME280;68045;50.042;14.432;2023-04-24T08:59:25;97327.81;;;12.26;80.12
78717;BME280;68045;50.042;14.432;2023-04-24T09:03:27;97330.72;;;12.40;80.08
78717;BME280;68045;50.042;14.432;2023-04-24T09:07:30;97336.25;;;12.23;79.54
78717;BME280;68045;50.042;14.432;2023-04-24T09:11:36;97331.00;;;12.28;78.77
78717;BME280;68045;50.042;14.432;2023-04-24T09:15:41;97331.78;;;12.64;78.00
78717;BME280;68045;50.042;14.432;2023-04-24T09:19:42;97320.34;;;13.05;76.47
78717;BME280;68045;50.042;14.432;2023-04-24T09:23:43;97319.53;;;13.04;74.19
78717;BME280;68045;50.042;14.432;2023-04-24T09:27:44;97324.78;;;13.25;73.56
78717;BME280;68045;50.042;14.432;2023-04-24T09:31:45;97325.28;;;13.32;74.04
78717;BME280;68045;50.042;14.432;2023-04-24T09:35:51;97314.44;;;13.88;71.10
78717;BME280;68045;50.042;14.432;2023-04-24T09:40:18;97315.88;;;14.14;70.32
78717;BME280;68045;50.042;14.432;2023-04-24T09:44:23;97311.50;;;14.68;69.50
78717;BME280;68045;50.042;14.432;2023-04-24T09:48:32;97315.13;;;15.30;65.49
78717;BME280;68045;50.042;14.432;2023-04-24T09:52:33;97301.59;;;15.26;65.01
78717;BME280;68045;50.042;14.432;2023-04-24T09:56:34;97310.16;;;15.42;64.17
78717;BME280;68045;50.042;14.432;2023-04-24T10:00:35;97294.09;;;16.46;61.83
78717;BME280;68045;50.042;14.432;2023-04-24T10:04:36;97297.16;;;16.54;59.08
78717;BME280;68045;50.042;14.432;2023-04-24T10:08:37;97289.59;;;16.28;61.05
78717;BME280;68045;50.042;14.432;2023-04-24T10:12:39;97291.34;;;16.52;60.28
78717;BME280;68045;50.042;14.432;2023-04-24T10:16:40;97281.56;;;17.48;56.89
78717;BME280;68045;50.042;14.432;2023-04-24T10:20:41;97279.72;;;18.44;51.79
78717;BME280;68045;50.042;14.432;2023-04-24T10:24:43;97285.63;;;20.51;47.29
78717;BME280;68045;50.042;14.432;2023-04-24T10:28:45;97278.56;;;21.61;41.75
78717;BME280;68045;50.042;14.432;2023-04-24T10:32:46;97281.03;;;20.35;44.67
78717;BME280;68045;50.042;14.432;2023-04-24T10:36:56;97295.78;;;19.06;46.63
78717;BME280;68045;50.042;14.432;2023-04-24T10:41:07;97286.56;;;18.58;48.24
78717;BME280;68045;50.042;14.432;2023-04-24T10:45:16;97286.69;;;19.64;46.39
78717;BME280;68045;50.042;14.432;2023-04-24T10:49:27;97277.84;;;19.55;44.65
78717;BME280;68045;50.042;14.432;2023-04-24T10:53:30;97277.03;;;18.97;46.98
78717;BME280;68045;50.042;14.432;2023-04-24T10:57:31;97270.16;;;17.70;48.20
78717;BME280;68045;50.042;14.432;2023-04-24T11:01:33;97276.44;;;17.24;49.11
78717;BME280;68045;50.042;14.432;2023-04-24T11:05:56;97260.56;;;19.04;46.19
78717;BME280;68045;50.042;14.432;2023-04-24T11:09:58;97260.75;;;21.57;40.69
78717;BME280;68045;50.042;14.432;2023-04-24T11:18:00;97259.31;;;24.30;34.04
78717;BME280;68045;50.042;14.432;2023-04-24T11:22:02;97249.34;;;25.37;31.32
78717;BME280;68045;50.042;14.432;2023-04-24T11:26:28;97260.25;;;24.50;32.05
78717;BME280;68045;50.042;14.432;2023-04-24T11:30:33;97263.00;;;23.33;32.71
78717;BME280;68045;50.042;14.432;2023-04-24T11:34:38;97265.13;;;23.51;33.88
78717;BME280;68045;50.042;14.432;2023-04-24T11:38:38;97270.59;;;23.92;31.93
78717;BME280;68045;50.042;14.432;2023-04-24T11:42:45;97264.94;;;21.46;35.70
78717;BME280;68045;50.042;14.432;2023-04-24T11:46:46;97252.34;;;20.44;38.44
78717;BME280;68045;50.042;14.432;2023-04-24T11:50:47;97253.78;;;20.33;40.16
78717;BME280;68045;50.042;14.432;2023-04-24T11:54:49;97251.97;;;20.80;39.25
78717;BME280;68045;50.042;14.432;2023-04-24T11:58:53;97254.44;;;19.60;41.17
78717;BME280;68045;50.042;14.432;2023-04-24T12:03:08;97255.22;;;18.73;43.26
78717;BME280;68045;50.042;14.432;2023-04-24T12:07:10;97258.41;;;18.07;45.74
78717;BME280;68045;50.042;14.432;2023-04-24T12:11:10;97264.09;;;17.28;46.69
78717;BME280;68045;50.042;14.432;2023-04-24T12:15:12;97289.97;;;16.22;54.69
78717;BME280;68045;50.042;14.432;2023-04-24T12:19:18;97315.72;;;15.46;62.35
78717;BME280;68045;50.042;14.432;2023-04-24T12:23:34;97321.53;;;15.00;65.41
78717;BME280;68045;50.042;14.432;2023-04-24T12:27:36;97294.47;;;14.35;62.01
78717;BME280;68045;50.042;14.432;2023-04-24T12:31:36;97305.72;;;13.82;61.47
78717;BME280;68045;50.042;14.432;2023-04-24T12:35:40;97305.25;;;13.75;62.88
78717;BME280;68045;50.042;14.432;2023-04-24T12:40:07;97299.63;;;13.27;61.25
78717;BME280;68045;50.042;14.432;2023-04-24T12:44:10;97302.25;;;13.32;63.23
78717;BME280;68045;50.042;14.432;2023-04-24T12:48:11;97293.75;;;13.40;66.01
78717;BME280;68045;50.042;14.432;2023-04-24T12:52:12;97294.38;;;13.71;67.43
78717;BME280;68045;50.042;14.432;2023-04-24T12:56:13;97305.97;;;13.81;67.76
78717;BME280;68045;50.042;14.432;2023-04-24T13:00:14;97301.31;;;13.67;69.25
78717;BME280;68045;50.042;14.432;2023-04-24T13:04:15;97289.34;;;13.70;70.44
78717;BME280;68045;50.042;14.432;2023-04-24T13:08:17;97292.50;;;13.72;69.94
78717;BME280;68045;50.042;14.432;2023-04-24T13:12:18;97303.28;;;13.96;67.79
78717;BME280;68045;50.042;14.432;2023-04-24T13:16:19;97291.03;;;13.95;68.43
78717;BME280;68045;50.042;14.432;2023-04-24T13:20:20;97279.09;;;14.02;68.36
78717;BME280;68045;50.042;14.432;2023-04-24T13:24:21;97283.78;;;14.45;67.49
78717;BME280;68045;50.042;14.432;2023-04-24T13:28:25;97269.00;;;14.92;66.82
78717;BME280;68045;50.042;14.432;2023-04-24T13:32:26;97260.03;;;14.88;65.89
78717;BME280;68045;50.042;14.432;2023-04-24T13:36:28;97265.78;;;14.37;67.07
78717;BME280;68045;50.042;14.432;2023-04-24T13:40:29;97256.56;;;13.95;68.74
78717;BME280;68045;50.042;14.432;2023-04-24T13:44:30;97255.25;;;13.92;69.69
78717;BME280;68045;50.042;14.432;2023-04-24T13:48:31;97252.38;;;14.23;69.51
78717;BME280;68045;50.042;14.432;2023-04-24T13:52:31;97245.13;;;14.34;61.36
78717;BME280;68045;50.042;14.432;2023-04-24T13:56:32;97237.88;;;14.97;62.45
78717;BME280;68045;50.042;14.432;2023-04-24T14:00:33;97247.91;;;15.24;57.12
78717;BME280;68045;50.042;14.432;2023-04-24T14:04:34;97248.13;;;15.28;51.99
78717;BME280;68045;50.042;14.432;2023-04-24T14:08:35;97247.13;;;15.43;48.92
78717;BME280;68045;50.042;14.432;2023-04-24T14:12:36;97230.31;;;15.28;47.79
78717;BME280;68045;50.042;14.432;2023-04-24T14:16:37;97252.56;;;15.14;46.09
78717;BME280;68045;50.042;14.432;2023-04-24T14:20:38;97246.91;;;14.96;46.82
78717;BME280;68045;50.042;14.432;2023-04-24T14:24:38;97245.06;;;14.97;43.70
78717;BME280;68045;50.042;14.432;2023-04-24T14:28:39;97251.38;;;15.01;44.62
78717;BME280;68045;50.042;14.432;2023-04-24T14:32:41;97254.03;;;15.25;45.12
78717;BME280;68045;50.042;14.432;2023-04-24T14:36:42;97245.59;;;15.60;45.40
78717;BME280;68045;50.042;14.432;2023-04-24T14:40:42;97243.38;;;15.86;42.67
78717;BME280;68045;50.042;14.432;2023-04-24T14:44:43;97244.34;;;16.28;42.78
78717;BME280;68045;50.042;14.432;2023-04-24T14:48:44;97245.94;;;16.89;40.56
78717;BME280;68045;50.042;14.432;2023-04-24T14:52:45;97242.69;;;17.06;41.39
78717;BME280;68045;50.042;14.432;2023-04-24T14:56:47;97244.97;;;17.13;38.62
78717;BME280;68045;50.042;14.432;2023-04-24T15:00:47;97229.84;;;17.08;39.78
78717;BME280;68045;50.042;14.432;2023-04-24T15:04:52;97241.78;;;16.97;38.96
78717;BME280;68045;50.042;14.432;2023-04-24T15:08:53;97246.16;;;17.07;38.66
78717;BME280;68045;50.042;14.432;2023-04-24T15:12:54;97244.19;;;16.98;37.73
78717;BME280;68045;50.042;14.432;2023-04-24T15:16:55;97235.47;;;17.07;37.53
78717;BME280;68045;50.042;14.432;2023-04-24T15:20:56;97232.41;;;16.99;38.17
78717;BME280;68045;50.042;14.432;2023-04-24T15:24:57;97236.25;;;16.93;37.09
78717;BME280;68045;50.042;14.432;2023-04-24T15:28:58;97239.63;;;16.71;36.34
78717;BME280;68045;50.042;14.432;2023-04-24T15:33:00;97258.22;;;16.58;36.98
78717;BME280;68045;50.042;14.432;2023-04-24T15:37:01;97250.66;;;16.32;38.55
78717;BME280;68045;50.042;14.432;2023-04-24T15:41:02;97251.97;;;16.16;39.06
78717;BME280;68045;50.042;14.432;2023-04-24T15:45:03;97256.94;;;16.23;39.38
78717;BME280;68045;50.042;14.432;2023-04-24T15:49:04;97257.91;;;16.27;37.47
78717;BME280;68045;50.042;14.432;2023-04-24T15:53:05;97261.66;;;16.26;38.77
78717;BME280;68045;50.042;14.432;2023-04-24T15:57:06;97252.81;;;16.30;38.31
78717;BME280;68045;50.042;14.432;2023-04-24T16:01:07;97258.16;;;16.11;37.25
78717;BME280;68045;50.042;14.432;2023-04-24T16:05:08;97252.88;;;15.74;38.94
78717;BME280;68045;50.042;14.432;2023-04-24T16:09:09;97278.44;;;15.51;38.41
78717;BME280;68045;50.042;14.432;2023-04-24T16:13:10;97286.53;;;15.41;38.79
78717;BME280;68045;50.042;14.432;2023-04-24T16:17:11;97291.41;;;15.33;40.32
78717;BME280;68045;50.042;14.432;2023-04-24T16:21:12;97297.69;;;15.19;40.26
78717;BME280;68045;50.042;14.432;2023-04-24T16:25:13;97293.63;;;15.02;40.84
78717;BME280;68045;50.042;14.432;2023-04-24T16:29:14;97290.78;;;14.94;40.21
78717;BME280;68045;50.042;14.432;2023-04-24T16:33:15;97289.16;;;14.98;40.56
78717;BME280;68045;50.042;14.432;2023-04-24T16:37:16;97290.69;;;15.04;41.04
78717;BME280;68045;50.042;14.432;2023-04-24T16:41:17;97285.88;;;15.06;40.35
78717;BME280;68045;50.042;14.432;2023-04-24T16:45:18;97294.47;;;14.98;40.54
78717;BME280;68045;50.042;14.432;2023-04-24T16:49:19;97287.63;;;14.92;39.33
78717;BME280;68045;50.042;14.432;2023-04-24T16:53:19;97306.63;;;14.80;40.18
78717;BME280;68045;50.042;14.432;2023-04-24T16:57:20;97320.81;;;14.65;41.05
78717;BME280;68045;50.042;14.432;2023-04-24T17:01:21;97304.50;;;14.48;39.20
78717;BME280;68045;50.042;14.432;2023-04-24T17:05:23;97311.19;;;14.35;40.44
78717;BME280;68045;50.042;14.432;2023-04-24T17:09:24;97316.59;;;14.25;40.59
78717;BME280;68045;50.042;14.432;2023-04-24T17:13:26;97318.53;;;14.14;41.90
78717;BME280;68045;50.042;14.432;2023-04-24T17:17:27;97327.34;;;14.05;41.61
78717;BME280;68045;50.042;14.432;2023-04-24T17:21:28;97329.03;;;13.90;42.59
78717;BME280;68045;50.042;14.432;2023-04-24T17:25:29;97334.63;;;13.89;42.97
78717;BME280;68045;50.042;14.432;2023-04-24T17:29:31;97341.31;;;13.76;43.39
78717;BME280;68045;50.042;14.432;2023-04-24T17:33:32;97327.84;;;13.62;43.41
78717;BME280;68045;50.042;14.432;2023-04-24T17:37:33;97339.31;;;13.48;45.54
78717;BME280;68045;50.042;14.432;2023-04-24T17:41:34;97347.84;;;13.34;44.65
78717;BME280;68045;50.042;14.432;2023-04-24T17:45:35;97352.91;;;13.21;44.62
78717;BME280;68045;50.042;14.432;2023-04-24T17:49:36;97352.88;;;13.15;45.60
78717;BME280;68045;50.042;14.432;2023-04-24T17:53:39;97361.09;;;13.19;46.17
78717;BME280;68045;50.042;14.432;2023-04-24T17:57:41;97367.47;;;13.13;45.55
78717;BME280;68045;50.042;14.432;2023-04-24T18:01:41;97377.28;;;13.07;46.38
78717;BME280;68045;50.042;14.432;2023-04-24T18:05:42;97379.94;;;12.97;46.26
78717;BME280;68045;50.042;14.432;2023-04-24T18:09:43;97388.13;;;12.96;47.29
78717;BME280;68045;50.042;14.432;2023-04-24T18:13:44;97390.53;;;12.92;46.25
78717;BME280;68045;50.042;14.432;2023-04-24T18:17:46;97400.09;;;12.83;47.10
78717;BME280;68045;50.042;14.432;2023-04-24T18:21:47;97404.31;;;12.69;47.68
78717;BME280;68045;50.042;14.432;2023-04-24T18:25:48;97412.00;;;12.65;47.92
78717;BME280;68045;50.042;14.432;2023-04-24T18:29:50;97408.78;;;12.53;49.00
78717;BME280;68045;50.042;14.432;2023-04-24T18:33:51;97420.44;;;12.47;49.13
78717;BME280;68045;50.042;14.432;2023-04-24T18:37:53;97430.25;;;12.41;49.60
78717;BME280;68045;50.042;14.432;2023-04-24T18:41:54;97426.00;;;12.35;49.48
78717;BME280;68045;50.042;14.432;2023-04-24T18:45:55;97431.53;;;12.33;49.44
78717;BME280;68045;50.042;14.432;2023-04-24T18:49:56;97450.56;;;12.25;50.03
78717;BME280;68045;50.042;14.432;2023-04-24T18:53:57;97452.66;;;12.23;50.55
78717;BME280;68045;50.042;14.432;2023-04-24T18:57:58;97465.88;;;12.18;49.57
78717;BME280;68045;50.042;14.432;2023-04-24T19:01:59;97467.72;;;12.18;49.87
78717;BME280;68045;50.042;14.432;2023-04-24T19:06:00;97472.50;;;12.16;50.51
78717;BME280;68045;50.042;14.432;2023-04-24T19:10:01;97471.16;;;12.13;51.11
78717;BME280;68045;50.042;14.432;2023-04-24T19:14:02;97473.56;;;12.15;51.50
78717;BME280;68045;50.042;14.432;2023-04-24T19:18:05;97484.41;;;12.13;51.44
78717;BME280;68045;50.042;14.432;2023-04-24T19:22:06;97482.78;;;12.12;51.09
78717;BME280;68045;50.042;14.432;2023-04-24T19:26:07;97478.53;;;12.06;51.96
78717;BME280;68045;50.042;14.432;2023-04-24T19:30:08;97489.66;;;12.08;52.14
78717;BME280;68045;50.042;14.432;2023-04-24T19:34:09;97498.88;;;12.00;52.02
78717;BME280;68045;50.042;14.432;2023-04-24T19:38:10;97492.50;;;11.91;53.21
78717;BME280;68045;50.042;14.432;2023-04-24T19:42:11;97496.69;;;11.87;52.72
78717;BME280;68045;50.042;14.432;2023-04-24T19:46:12;97497.16;;;11.79;53.34
78717;BME280;68045;50.042;14.432;2023-04-24T19:50:13;97496.63;;;11.77;53.55
78717;BME280;68045;50.042;14.432;2023-04-24T19:54:14;97489.16;;;11.64;52.63
78717;BME280;68045;50.042;14.432;2023-04-24T19:58:15;97494.31;;;11.48;52.98
78717;BME280;68045;50.042;14.432;2023-04-24T20:02:16;97499.00;;;11.36;53.98
78717;BME280;68045;50.042;14.432;2023-04-24T20:06:17;97499.75;;;11.32;54.43
78717;BME280;68045;50.042;14.432;2023-04-24T20:10:18;97491.50;;;11.23;54.36
78717;BME280;68045;50.042;14.432;2023-04-24T20:14:19;97493.63;;;11.21;55.71
78717;BME280;68045;50.042;14.432;2023-04-24T20:18:20;97490.34;;;11.09;55.12
78717;BME280;68045;50.042;14.432;2023-04-24T20:22:21;97491.41;;;11.08;56.03
78717;BME280;68045;50.042;14.432;2023-04-24T20:26:22;97485.56;;;11.06;55.95
78717;BME280;68045;50.042;14.432;2023-04-24T20:30:23;97506.69;;;11.06;56.08
78717;BME280;68045;50.042;14.432;2023-04-24T20:34:24;97506.41;;;11.02;56.45
78717;BME280;68045;50.042;14.432;2023-04-24T20:38:25;97498.69;;;10.95;55.97
78717;BME280;68045;50.042;14.432;2023-04-24T20:42:26;97504.16;;;10.89;57.06
78717;BME280;68045;50.042;14.432;2023-04-24T20:46:28;97500.72;;;10.88;57.08
78717;BME280;68045;50.042;14.432;2023-04-24T20:50:29;97503.84;;;10.80;57.16
78717;BME280;68045;50.042;14.432;2023-04-24T20:54:32;97504.88;;;10.79;57.50
78717;BME280;68045;50.042;14.432;2023-04-24T20:58:33;97511.69;;;10.75;58.03
78717;BME280;68045;50.042;14.432;2023-04-24T21:02:34;97504.28;;;10.72;57.88
78717;BME280;68045;50.042;14.432;2023-04-24T21:06:36;97493.56;;;10.57;57.70
78717;BME280;68045;50.042;14.432;2023-04-24T21:10:36;97512.28;;;10.55;58.08
78717;BME280;68045;50.042;14.432;2023-04-24T21:14:37;97515.44;;;10.52;59.05